createdAt,value
2022-08-16T00:03:47.475Z,100.00
2022-08-16T00:08:52.485Z,100.00
2022-08-16T00:13:56.106Z,100.00
2022-08-16T00:19:01.438Z,100.00
2022-08-16T00:24:06.186Z,100.00
2022-08-16T00:29:17.464Z,100.00
2022-08-16T00:34:43.392Z,100.00
2022-08-16T00:39:57.581Z,100.00
2022-08-16T00:45:08.092Z,100.00
2022-08-16T00:50:14.477Z,100.00
2022-08-16T00:55:23.513Z,100.00
2022-08-16T01:00:28.937Z,100.00
2022-08-16T01:05:34.491Z,100.00
2022-08-16T01:10:38.487Z,100.00
2022-08-16T01:15:52.594Z,100.00
2022-08-16T01:21:12.700Z,100.00
2022-08-16T01:26:35.408Z,100.00
2022-08-16T01:31:42.743Z,100.00
2022-08-16T01:36:47.793Z,100.00
2022-08-16T01:42:07.786Z,100.00
2022-08-16T01:47:16.554Z,100.00
2022-08-16T01:52:29.341Z,100.00
2022-08-16T01:58:01.248Z,100.00
2022-08-16T02:03:05.168Z,100.00
2022-08-16T02:08:09.546Z,100.00
2022-08-16T02:13:34.956Z,100.00
2022-08-16T02:18:38.948Z,100.00
2022-08-16T02:23:43.771Z,100.00
2022-08-16T02:28:48.750Z,100.00
2022-08-16T02:33:56.313Z,100.00
2022-08-16T02:39:09.947Z,100.00
2022-08-16T02:44:15.429Z,100.00
2022-08-16T02:49:32.311Z,100.00
2022-08-16T02:54:48.631Z,100.00
2022-08-16T03:00:03.838Z,100.00
2022-08-16T03:05:26.513Z,100.00
2022-08-16T03:10:36.079Z,100.00
2022-08-16T03:15:45.368Z,100.00
2022-08-16T03:20:56.553Z,100.00
2022-08-16T03:26:00.793Z,100.00
2022-08-16T03:31:07.079Z,100.00
2022-08-16T03:36:30.190Z,100.00
2022-08-16T03:41:50.274Z,100.00
2022-08-16T03:46:58.857Z,100.00
2022-08-16T03:52:08.782Z,100.00
2022-08-16T03:57:15.714Z,100.00
2022-08-16T04:02:31.727Z,100.00
2022-08-16T04:07:38.602Z,100.00
2022-08-16T04:12:53.077Z,100.00
2022-08-16T04:18:01.992Z,100.00
2022-08-16T04:23:08.299Z,100.00
2022-08-16T04:28:29.715Z,100.00
2022-08-16T04:33:50.573Z,100.00
2022-08-16T04:38:58.799Z,100.00
2022-08-16T04:44:32.709Z,100.00
2022-08-16T04:49:43.801Z,100.00
2022-08-16T04:54:50.627Z,100.00
2022-08-16T04:59:54.396Z,100.00
2022-08-16T05:04:59.421Z,100.00
2022-08-16T05:10:05.341Z,100.00
2022-08-16T05:15:24.611Z,100.00
2022-08-16T05:20:38.622Z,100.00
2022-08-16T05:25:54.163Z,100.00
2022-08-16T05:30:58.237Z,100.00
2022-08-16T05:36:14.272Z,100.00
2022-08-16T05:41:26.829Z,100.00
2022-08-16T05:46:31.455Z,100.00
2022-08-16T05:51:57.085Z,100.00
2022-08-16T05:57:02.039Z,100.00
2022-08-16T06:02:08.587Z,100.00
2022-08-16T06:07:24.896Z,96.35
2022-08-16T06:12:38.254Z,90.61
2022-08-16T06:17:44.651Z,88.39
2022-08-16T06:23:04.107Z,79.52
2022-08-16T06:28:35.658Z,79.94
2022-08-16T06:38:56.013Z,87.47
2022-08-16T06:44:20.952Z,86.25
2022-08-16T06:49:27.321Z,75.34
2022-08-16T06:54:34.358Z,66.49
2022-08-16T06:59:48.579Z,58.55
2022-08-16T07:04:58.227Z,58.03
2022-08-16T07:10:08.516Z,55.67
2022-08-16T07:15:17.142Z,52.09
2022-08-16T07:20:29.840Z,50.38
2022-08-16T07:25:42.281Z,51.21
2022-08-16T07:30:48.862Z,51.13
2022-08-16T07:36:21.719Z,52.02
2022-08-16T07:41:27.864Z,53.30
2022-08-16T07:46:38.589Z,50.71
2022-08-16T07:52:20.534Z,49.50
2022-08-16T07:57:27.644Z,49.13
2022-08-16T08:02:32.641Z,47.07
2022-08-16T08:07:37.682Z,48.15
2022-08-16T08:12:51.079Z,46.65
2022-08-16T08:18:01.638Z,46.21
2022-08-16T08:23:23.049Z,45.73
2022-08-16T08:28:30.886Z,45.89
2022-08-16T08:33:47.193Z,44.86
2022-08-16T08:38:52.501Z,44.52
2022-08-16T08:43:59.006Z,44.23
2022-08-16T08:49:03.584Z,44.31
2022-08-16T08:54:18.605Z,44.04
2022-08-16T08:59:28.563Z,45.49
2022-08-16T09:04:34.181Z,44.98
2022-08-16T09:09:41.275Z,43.23
2022-08-16T09:14:50.999Z,42.59
2022-08-16T09:20:02.850Z,41.95
2022-08-16T09:25:11.385Z,43.95
2022-08-16T09:30:33.286Z,43.56
2022-08-16T09:35:39.466Z,42.17
2022-08-16T09:40:48.415Z,41.04
2022-08-16T09:45:54.526Z,40.89
2022-08-16T09:50:58.697Z,40.62
2022-08-16T09:56:04.730Z,41.50
2022-08-16T10:01:16.566Z,42.94
2022-08-16T10:06:21.623Z,41.41
2022-08-16T10:11:50.303Z,41.48
2022-08-16T10:16:59.610Z,39.53
2022-08-16T10:22:05.883Z,38.95
2022-08-16T10:27:26.945Z,40.72
2022-08-16T10:32:35.320Z,39.63
2022-08-16T10:37:39.029Z,38.63
2022-08-16T10:42:42.822Z,39.72
2022-08-16T10:48:00.502Z,39.10
2022-08-16T10:53:07.773Z,38.37
2022-08-16T10:58:17.052Z,37.63
2022-08-16T11:03:42.949Z,39.25
2022-08-16T11:08:46.482Z,40.78
2022-08-16T11:14:06.154Z,41.41
2022-08-16T11:19:17.026Z,42.70
2022-08-16T11:24:42.598Z,42.87
2022-08-16T11:29:44.749Z,40.92
2022-08-16T11:35:10.189Z,40.01
2022-08-16T11:40:14.595Z,39.43
2022-08-16T11:45:23.892Z,38.76
2022-08-16T11:50:33.539Z,39.58
2022-08-16T11:55:38.970Z,38.27
2022-08-16T12:00:51.482Z,40.90
2022-08-16T12:05:57.868Z,41.33
2022-08-16T12:11:02.365Z,40.80
2022-08-16T12:16:09.086Z,39.96
2022-08-16T12:21:14.942Z,39.29
2022-08-16T12:26:18.720Z,39.58
2022-08-16T12:31:23.257Z,37.84
2022-08-16T12:36:29.963Z,39.76
2022-08-16T12:41:34.915Z,39.98
2022-08-16T12:46:38.757Z,40.71
2022-08-16T14:01:01.691Z,37.99
2022-08-16T14:06:14.183Z,38.86
2022-08-16T14:16:45.034Z,38.90
2022-08-16T14:22:13.727Z,37.71
2022-08-16T14:27:42.371Z,37.44
2022-08-16T14:38:44.596Z,40.22
2022-08-16T14:43:56.583Z,40.67
2022-08-16T14:49:04.718Z,40.47
2022-08-16T14:54:15.082Z,39.05
2022-08-16T14:59:19.502Z,40.10
2022-08-16T15:04:34.364Z,39.30
2022-08-16T15:10:00.415Z,40.87
2022-08-16T15:15:13.187Z,39.38
2022-08-16T15:20:22.348Z,39.55
2022-08-16T15:25:29.734Z,39.77
2022-08-16T15:30:59.850Z,39.58
2022-08-16T15:36:02.363Z,39.74
2022-08-16T15:41:06.952Z,39.75
2022-08-16T15:46:34.924Z,40.25
2022-08-16T15:51:50.668Z,40.33
2022-08-16T15:57:00.331Z,40.74
2022-08-16T16:02:08.468Z,40.51
2022-08-16T16:07:15.768Z,41.64
2022-08-16T16:12:51.202Z,42.38
2022-08-16T16:17:50.652Z,42.64
2022-08-16T16:22:57.971Z,42.81
2022-08-16T16:28:02.937Z,45.75
2022-08-16T16:33:22.200Z,44.81
2022-08-16T16:38:30.984Z,45.48
2022-08-16T16:43:35.853Z,44.15
2022-08-16T16:48:39.894Z,42.65
2022-08-16T16:53:55.739Z,43.08
2022-08-16T16:59:01.741Z,42.59
2022-08-16T17:04:13.330Z,42.10
2022-08-16T17:09:25.147Z,42.07
2022-08-16T17:14:33.001Z,42.86
2022-08-16T17:19:40.918Z,42.00
2022-08-16T17:24:50.214Z,41.57
2022-08-16T17:29:55.263Z,41.21
2022-08-16T17:35:03.043Z,43.00
2022-08-16T17:40:25.801Z,45.40
2022-08-16T17:45:38.425Z,43.79
2022-08-16T17:50:43.191Z,45.27
2022-08-16T17:55:50.518Z,46.06
2022-08-16T18:00:56.746Z,48.30
2022-08-16T18:06:00.287Z,50.58
2022-08-16T18:11:05.395Z,52.52
2022-08-16T18:16:11.848Z,53.67
2022-08-16T18:21:33.673Z,54.44
2022-08-16T18:26:39.838Z,57.73
2022-08-16T18:31:43.828Z,59.95
2022-08-16T18:36:47.745Z,61.73
2022-08-16T18:41:53.055Z,62.55
2022-08-16T18:46:56.848Z,62.98
2022-08-16T18:52:01.489Z,67.57
2022-08-16T18:57:08.085Z,68.15
2022-08-16T19:02:56.976Z,71.28
2022-08-16T19:07:35.453Z,71.40
2022-08-16T19:12:52.372Z,72.37
2022-08-16T19:17:56.501Z,70.65
2022-08-16T19:23:06.323Z,72.72
2022-08-16T19:28:46.672Z,72.77
2022-08-16T19:33:53.670Z,72.16
2022-08-16T19:38:58.590Z,73.29
2022-08-16T19:44:10.996Z,76.05
2022-08-16T19:49:15.934Z,75.19
2022-08-16T19:54:20.441Z,77.04
2022-08-16T19:59:39.340Z,76.75
2022-08-16T20:04:44.952Z,77.16
2022-08-16T20:09:49.519Z,77.02
2022-08-16T20:14:56.167Z,77.94
2022-08-16T20:20:00.359Z,78.64
2022-08-16T20:25:07.637Z,78.70
2022-08-16T20:30:16.779Z,79.92
2022-08-16T20:35:24.206Z,80.43
2022-08-16T20:40:35.135Z,81.29
2022-08-16T20:45:43.048Z,82.34
2022-08-16T20:50:47.977Z,82.72
2022-08-16T20:55:51.521Z,83.33
2022-08-16T21:00:59.688Z,88.00
2022-08-16T21:06:03.939Z,86.37
2022-08-16T21:11:08.282Z,92.26
2022-08-16T21:16:13.061Z,90.11
2022-08-16T21:21:16.723Z,90.81
2022-08-16T21:26:20.215Z,88.36
2022-08-16T21:31:25.294Z,89.64
2022-08-16T21:36:35.045Z,91.97
2022-08-16T21:41:39.903Z,89.46
2022-08-16T21:46:44.914Z,89.48
2022-08-16T21:51:48.326Z,91.60
2022-08-16T21:56:51.904Z,93.28
2022-08-16T22:01:57.056Z,94.10
2022-08-16T22:07:00.814Z,99.26
2022-08-16T22:12:05.072Z,95.96
2022-08-16T22:17:10.308Z,98.65
2022-08-16T22:22:14.140Z,97.79
2022-08-16T22:27:17.637Z,97.99
2022-08-16T22:32:23.113Z,96.98
2022-08-16T22:37:27.022Z,98.76
2022-08-16T22:42:30.975Z,100.00
2022-08-16T22:47:36.079Z,100.00
2022-08-16T22:53:00.359Z,99.45
2022-08-16T22:58:05.138Z,100.00
2022-08-16T23:03:13.568Z,99.55
2022-08-16T23:08:38.434Z,99.26
2022-08-16T23:13:49.868Z,100.00
2022-08-16T23:18:58.899Z,100.00
2022-08-16T23:24:02.605Z,100.00
2022-08-16T23:29:22.239Z,100.00
2022-08-16T23:34:30.129Z,100.00
2022-08-16T23:39:33.685Z,100.00
2022-08-16T23:44:56.742Z,100.00
2022-08-16T23:50:04.006Z,100.00
2022-08-16T23:55:09.095Z,100.00
